createdAt,value
2023-05-08T00:01:33.406Z,101359.48
2023-05-08T00:04:02.068Z,101362.14
2023-05-08T00:06:31.373Z,101360.62
2023-05-08T00:08:59.700Z,101362.17
2023-05-08T00:11:34.457Z,101356.29
2023-05-08T00:14:04.888Z,101356.95
2023-05-08T00:16:33.642Z,101355.60
2023-05-08T00:19:02.363Z,101350.56
2023-05-08T00:21:31.470Z,101349.20
2023-05-08T00:23:59.989Z,101348.11
2023-05-08T00:26:28.544Z,101350.44
2023-05-08T00:28:57.020Z,101349.47
2023-05-08T00:31:25.739Z,101349.52
2023-05-08T00:33:54.595Z,101350.96
2023-05-08T00:36:23.072Z,101356.63
2023-05-08T00:38:51.544Z,101352.41
2023-05-08T00:41:20.064Z,101352.34
2023-05-08T00:43:48.829Z,101347.31
2023-05-08T00:46:18.096Z,101348.16
2023-05-08T00:48:47.340Z,101348.35
2023-05-08T00:51:16.628Z,101347.89
2023-05-08T00:53:45.581Z,101350.17
2023-05-08T00:56:17.053Z,101351.02
2023-05-08T00:58:45.920Z,101351.68
2023-05-08T01:01:16.249Z,101357.23
2023-05-08T01:03:45.480Z,101347.95
2023-05-08T01:06:14.171Z,101359.16
2023-05-08T01:08:45.616Z,101361.23
2023-05-08T01:11:51.984Z,101360.02
2023-05-08T01:14:21.809Z,101357.70
2023-05-08T01:17:05.552Z,101355.91
2023-05-08T01:19:54.265Z,101357.09
2023-05-08T01:22:54.117Z,101357.82
2023-05-08T01:26:00.582Z,101357.88
2023-05-08T01:28:41.614Z,101364.55
2023-05-08T01:31:28.844Z,101363.86
2023-05-08T01:34:05.587Z,101364.41
2023-05-08T01:36:41.706Z,101362.77
2023-05-08T01:39:32.766Z,101365.63
2023-05-08T01:42:08.479Z,101364.45
2023-05-08T01:44:44.026Z,101363.63
2023-05-08T01:47:18.467Z,101367.39
2023-05-08T01:49:50.985Z,101366.70
2023-05-08T01:52:28.728Z,101370.04
2023-05-08T01:55:05.804Z,101372.48
2023-05-08T01:57:38.679Z,101368.88
2023-05-08T02:00:08.609Z,101372.78
2023-05-08T02:02:41.138Z,101368.93
2023-05-08T02:05:11.208Z,101363.92
2023-05-08T02:07:41.430Z,101367.52
2023-05-08T02:10:11.844Z,101371.31
2023-05-08T02:12:43.409Z,101375.09
2023-05-08T02:15:16.101Z,101374.30
2023-05-08T02:17:48.905Z,101379.23
2023-05-08T02:20:18.914Z,101381.80
2023-05-08T02:22:51.505Z,101385.40
2023-05-08T02:25:20.237Z,101389.66
2023-05-08T02:27:50.954Z,101386.50
2023-05-08T02:30:22.226Z,101389.48
2023-05-08T02:32:53.522Z,101389.51
2023-05-08T02:35:23.662Z,101390.89
2023-05-08T02:37:55.634Z,101395.25
2023-05-08T02:40:28.021Z,101397.30
2023-05-08T02:42:57.538Z,101401.35
2023-05-08T02:45:33.203Z,101400.13
2023-05-08T02:48:15.697Z,101402.84
2023-05-08T02:51:00.666Z,101403.27
2023-05-08T02:53:37.946Z,101404.95
2023-05-08T02:56:15.537Z,101400.51
2023-05-08T02:58:49.655Z,101408.74
2023-05-08T03:01:30.393Z,101409.41
2023-05-08T03:04:08.077Z,101409.73
2023-05-08T03:06:47.149Z,101408.06
2023-05-08T03:09:21.142Z,101412.91
2023-05-08T03:11:54.029Z,101415.35
2023-05-08T03:14:27.337Z,101414.96
2023-05-08T03:16:58.254Z,101416.79
2023-05-08T03:19:36.785Z,101416.04
2023-05-08T03:22:09.078Z,101416.52
2023-05-08T03:24:40.291Z,101418.52
2023-05-08T03:27:14.406Z,101414.73
2023-05-08T03:29:45.889Z,101416.39
2023-05-08T03:32:15.400Z,101420.05
2023-05-08T03:34:44.971Z,101417.15
2023-05-08T03:37:13.565Z,101417.04
2023-05-08T03:39:42.359Z,101418.67
2023-05-08T03:42:21.908Z,101417.17
2023-05-08T03:44:54.873Z,101405.91
2023-05-08T03:47:27.942Z,101417.23
2023-05-08T03:49:57.641Z,101423.29
2023-05-08T03:52:27.124Z,101423.05
2023-05-08T03:54:56.078Z,101424.44
2023-05-08T03:57:28.050Z,101428.38
2023-05-08T04:00:20.797Z,101425.21
2023-05-08T04:03:25.227Z,101426.11
2023-05-08T04:06:08.186Z,101426.45
2023-05-08T04:08:49.613Z,101427.33
2023-05-08T04:11:31.949Z,101427.85
2023-05-08T04:14:07.381Z,101430.48
2023-05-08T04:16:44.991Z,101433.01
2023-05-08T04:19:25.123Z,101437.46
2023-05-08T04:21:59.141Z,101437.14
2023-05-08T04:24:30.804Z,101438.95
2023-05-08T04:27:01.906Z,101446.50
2023-05-08T04:29:33.704Z,101449.20
2023-05-08T04:32:05.656Z,101451.60
2023-05-08T04:34:36.134Z,101452.42
2023-05-08T04:37:07.568Z,101457.13
2023-05-08T04:39:36.526Z,101463.30
2023-05-08T04:42:05.933Z,101467.85
2023-05-08T04:44:35.895Z,101469.20
2023-05-08T04:47:04.642Z,101470.85
2023-05-08T04:49:33.950Z,101475.04
2023-05-08T04:52:02.436Z,101476.69
2023-05-08T04:54:31.096Z,101473.00
2023-05-08T04:56:59.979Z,101478.00
2023-05-08T04:59:29.694Z,101479.83
2023-05-08T05:01:59.382Z,101480.64
2023-05-08T05:04:29.538Z,101483.47
2023-05-08T05:06:58.210Z,101485.66
2023-05-08T05:09:27.525Z,101489.16
2023-05-08T05:11:58.161Z,101493.29
2023-05-08T05:14:27.671Z,101490.89
2023-05-08T05:16:56.754Z,101484.20
2023-05-08T05:19:25.844Z,101487.82
2023-05-08T05:21:54.623Z,101488.91
2023-05-08T05:24:23.634Z,101487.00
2023-05-08T05:26:54.352Z,101491.52
2023-05-08T05:29:23.758Z,101495.51
2023-05-08T05:31:52.923Z,101494.55
2023-05-08T05:34:22.351Z,101495.16
2023-05-08T05:36:50.953Z,101493.81
2023-05-08T05:39:19.733Z,101501.83
2023-05-08T05:41:48.420Z,101504.39
2023-05-08T05:44:17.096Z,101502.88
2023-05-08T05:46:45.841Z,101504.35
2023-05-08T05:49:14.474Z,101505.40
2023-05-08T05:51:43.167Z,101506.72
2023-05-08T05:54:11.956Z,101502.48
2023-05-08T05:56:41.041Z,101506.63
2023-05-08T05:59:09.835Z,101503.88
2023-05-08T06:01:39.677Z,101503.10
2023-05-08T06:04:08.254Z,101500.90
2023-05-08T06:06:36.919Z,101501.09
2023-05-08T06:09:07.346Z,101502.16
2023-05-08T06:11:35.766Z,101507.54
2023-05-08T06:14:07.383Z,101510.94
2023-05-08T06:16:36.513Z,101514.52
2023-05-08T06:19:05.572Z,101516.03
2023-05-08T06:21:34.775Z,101510.84
2023-05-08T06:24:03.968Z,101514.72
2023-05-08T06:26:32.830Z,101516.58
2023-05-08T06:29:01.744Z,101518.02
2023-05-08T06:31:30.606Z,101518.41
2023-05-08T06:33:59.436Z,101523.82
2023-05-08T06:36:27.905Z,101513.44
2023-05-08T06:38:57.128Z,101518.89
2023-05-08T06:41:26.822Z,101520.23
2023-05-08T06:43:56.477Z,101523.48
2023-05-08T06:46:25.918Z,101526.83
2023-05-08T06:48:54.576Z,101525.27
2023-05-08T06:51:23.407Z,101529.09
2023-05-08T06:53:52.202Z,101529.24
2023-05-08T06:56:23.198Z,101527.77
2023-05-08T06:59:04.496Z,101527.05
2023-05-08T07:01:37.631Z,101534.23
2023-05-08T07:04:06.561Z,101528.75
2023-05-08T07:06:35.308Z,101526.98
2023-05-08T07:09:04.288Z,101527.21
2023-05-08T07:11:32.985Z,101528.48
2023-05-08T07:14:01.553Z,101532.13
2023-05-08T07:16:30.170Z,101533.24
2023-05-08T07:18:59.642Z,101530.53
2023-05-08T07:21:29.694Z,101533.54
2023-05-08T07:23:58.330Z,101535.89
2023-05-08T07:26:27.018Z,101533.16
2023-05-08T07:28:55.913Z,101538.03
2023-05-08T07:31:32.451Z,101538.01
2023-05-08T07:34:02.722Z,101540.77
2023-05-08T07:36:32.635Z,101536.63
2023-05-08T07:39:01.442Z,101535.48
2023-05-08T07:41:30.207Z,101532.34
2023-05-08T07:43:59.320Z,101530.13
2023-05-08T07:46:28.143Z,101528.65
2023-05-08T07:48:56.871Z,101530.67
2023-05-08T07:51:25.679Z,101532.56
2023-05-08T07:53:55.375Z,101529.89
2023-05-08T07:56:23.842Z,101535.02
2023-05-08T07:58:52.524Z,101534.97
2023-05-08T08:01:21.424Z,101532.68
2023-05-08T08:03:50.393Z,101535.10
2023-05-08T08:06:19.112Z,101535.14
2023-05-08T08:08:47.888Z,101533.90
2023-05-08T08:11:16.915Z,101539.77
2023-05-08T08:13:45.881Z,101539.41
2023-05-08T08:16:14.699Z,101538.20
2023-05-08T08:18:43.256Z,101536.64
2023-05-08T08:21:12.477Z,101533.80
2023-05-08T08:23:41.851Z,101532.42
2023-05-08T08:26:10.345Z,101527.48
2023-05-08T08:28:39.127Z,101533.19
2023-05-08T08:31:07.740Z,101527.15
2023-05-08T08:33:36.712Z,101528.81
2023-05-08T08:36:05.809Z,101530.45
2023-05-08T08:38:34.481Z,101525.27
2023-05-08T08:41:04.265Z,101526.86
2023-05-08T08:43:33.190Z,101525.42
2023-05-08T08:46:11.010Z,101528.29
2023-05-08T08:48:46.371Z,101521.95
2023-05-08T08:51:24.862Z,101520.45
2023-05-08T08:54:03.869Z,101521.84
2023-05-08T08:56:33.685Z,101517.23
2023-05-08T08:59:03.926Z,101513.64
2023-05-08T09:01:36.501Z,101519.23
2023-05-08T09:04:05.905Z,101520.67
2023-05-08T09:06:38.670Z,101515.31
2023-05-08T09:09:07.467Z,101519.88
2023-05-08T09:11:37.655Z,101513.70
2023-05-08T09:14:06.676Z,101512.40
2023-05-08T09:16:35.813Z,101504.17
2023-05-08T09:19:04.914Z,101509.05
2023-05-08T09:21:34.474Z,101506.89
2023-05-08T09:24:05.579Z,101509.24
2023-05-08T09:26:39.757Z,101511.99
2023-05-08T09:29:22.476Z,101509.05
2023-05-08T09:31:53.035Z,101506.50
2023-05-08T09:34:28.469Z,101507.08
2023-05-08T09:37:12.811Z,101510.60
2023-05-08T09:39:43.875Z,101504.98
2023-05-08T09:42:15.959Z,101507.58
2023-05-08T09:44:46.773Z,101504.92
2023-05-08T09:47:23.702Z,101505.10
2023-05-08T09:50:07.637Z,101506.91
2023-05-08T09:52:38.778Z,101507.84
2023-05-08T09:55:11.301Z,101509.48
2023-05-08T09:57:52.348Z,101501.67
2023-05-08T10:00:21.448Z,101497.77
2023-05-08T10:03:00.754Z,101499.04
2023-05-08T10:05:32.254Z,101496.41
2023-05-08T10:08:19.961Z,101496.93
2023-05-08T10:10:48.757Z,101498.38
2023-05-08T10:13:17.556Z,101494.20
2023-05-08T10:15:53.273Z,101492.75
2023-05-08T10:18:29.245Z,101491.41
2023-05-08T10:21:06.919Z,101487.75
2023-05-08T10:23:38.299Z,101481.46
2023-05-08T10:26:16.493Z,101481.02
2023-05-08T10:28:50.605Z,101473.19
2023-05-08T10:31:22.436Z,101474.77
2023-05-08T10:33:55.261Z,101478.75
2023-05-08T10:36:25.062Z,101476.94
2023-05-08T10:38:54.996Z,101471.70
2023-05-08T10:41:24.087Z,101472.18
2023-05-08T10:43:53.589Z,101472.98
2023-05-08T10:46:33.040Z,101469.68
2023-05-08T10:49:16.135Z,101472.39
2023-05-08T10:51:53.436Z,101467.73
2023-05-08T10:54:40.036Z,101468.66
2023-05-08T10:57:12.810Z,101467.20
2023-05-08T10:59:47.718Z,101469.02
2023-05-08T11:02:17.211Z,101468.11
2023-05-08T11:04:46.033Z,101465.28
2023-05-08T11:07:17.806Z,101464.80
2023-05-08T11:09:48.022Z,101456.33
2023-05-08T11:12:31.898Z,101457.82
2023-05-08T11:15:10.087Z,101464.81
2023-05-08T11:17:40.461Z,101457.30
2023-05-08T11:20:09.389Z,101451.04
2023-05-08T11:22:39.004Z,101449.66
2023-05-08T11:25:10.367Z,101446.27
2023-05-08T11:27:42.724Z,101450.63
2023-05-08T11:30:32.614Z,101446.46
2023-05-08T11:33:04.696Z,101453.08
2023-05-08T11:35:51.994Z,101456.78
2023-05-08T11:38:31.645Z,101453.58
2023-05-08T11:41:07.750Z,101458.09
2023-05-08T11:43:39.236Z,101455.38
2023-05-08T11:46:14.902Z,101451.14
2023-05-08T11:48:44.192Z,101446.41
2023-05-08T11:51:13.914Z,101448.88
2023-05-08T11:53:44.117Z,101449.91
2023-05-08T11:56:13.020Z,101452.30
2023-05-08T11:58:41.907Z,101455.72
2023-05-08T12:01:10.725Z,101455.01
2023-05-08T12:03:39.583Z,101449.83
2023-05-08T12:06:08.461Z,101453.66
2023-05-08T12:08:39.832Z,101452.61
2023-05-08T12:11:09.442Z,101446.23
2023-05-08T12:13:38.225Z,101447.95
2023-05-08T12:16:08.157Z,101446.59
2023-05-08T12:18:39.827Z,101444.56
2023-05-08T12:21:08.889Z,101440.11
2023-05-08T12:23:38.585Z,101444.52
2023-05-08T12:26:09.166Z,101445.54
2023-05-08T12:28:37.925Z,101444.14
2023-05-08T12:31:07.186Z,101448.30
2023-05-08T12:33:36.008Z,101448.64
2023-05-08T12:36:06.620Z,101446.37
2023-05-08T12:38:35.128Z,101444.36
2023-05-08T12:41:04.941Z,101441.45
2023-05-08T12:43:37.664Z,101437.76
2023-05-08T12:46:06.543Z,101437.27
2023-05-08T12:48:35.182Z,101428.99
2023-05-08T12:51:04.974Z,101425.39
2023-05-08T12:53:34.015Z,101427.53
2023-05-08T12:56:04.826Z,101422.29
2023-05-08T12:58:35.078Z,101423.89
2023-05-08T13:01:15.825Z,101424.11
2023-05-08T13:03:47.168Z,101411.95
2023-05-08T13:06:21.512Z,101417.22
2023-05-08T13:08:57.334Z,101417.89
2023-05-08T13:11:31.645Z,101414.96
2023-05-08T13:14:01.029Z,101409.67
2023-05-08T13:16:30.522Z,101402.60
2023-05-08T13:18:59.694Z,101397.02
2023-05-08T13:21:30.455Z,101390.21
2023-05-08T13:24:00.253Z,101395.92
2023-05-08T13:26:30.116Z,101397.27
2023-05-08T13:28:59.655Z,101396.97
2023-05-08T13:31:28.524Z,101389.73
2023-05-08T13:33:57.211Z,101383.50
2023-05-08T13:36:28.797Z,101390.05
2023-05-08T13:38:57.953Z,101382.60
2023-05-08T13:41:27.270Z,101377.23
2023-05-08T13:43:56.342Z,101374.30
2023-05-08T13:46:25.689Z,101374.45
2023-05-08T13:48:55.377Z,101376.78
2023-05-08T13:51:25.310Z,101372.74
2023-05-08T13:53:54.169Z,101377.72
2023-05-08T13:56:26.658Z,101372.28
2023-05-08T13:58:57.787Z,101369.77
2023-05-08T14:01:28.413Z,101372.73
2023-05-08T14:03:57.636Z,101370.23
2023-05-08T14:06:28.517Z,101363.46
2023-05-08T14:09:01.131Z,101355.46
2023-05-08T14:11:32.693Z,101359.58
2023-05-08T14:14:04.551Z,101355.92
2023-05-08T14:16:37.476Z,101358.02
2023-05-08T14:19:09.190Z,101355.51
2023-05-08T14:21:42.169Z,101356.77
2023-05-08T14:24:12.406Z,101355.13
2023-05-08T14:26:45.260Z,101352.42
2023-05-08T14:29:19.852Z,101349.11
2023-05-08T14:31:49.859Z,101345.77
2023-05-08T14:34:22.216Z,101346.59
2023-05-08T14:36:52.949Z,101345.77
2023-05-08T14:39:22.060Z,101349.59
2023-05-08T14:42:14.210Z,101346.23
2023-05-08T14:44:42.954Z,101349.59
2023-05-08T14:47:12.546Z,101349.30
2023-05-08T14:49:42.467Z,101348.15
2023-05-08T14:52:11.372Z,101347.77
2023-05-08T14:54:40.537Z,101350.65
2023-05-08T14:57:09.903Z,101346.96
2023-05-08T15:02:30.486Z,101353.40
2023-05-08T15:05:01.209Z,101353.80
2023-05-08T15:07:31.649Z,101345.31
2023-05-08T15:10:02.491Z,101347.55
2023-05-08T15:12:33.232Z,101343.50
2023-05-08T15:15:04.360Z,101342.91
2023-05-08T15:17:37.111Z,101340.48
2023-05-08T15:20:08.324Z,101338.52
2023-05-08T15:22:37.853Z,101341.27
2023-05-08T15:25:09.838Z,101343.94
2023-05-08T15:27:43.453Z,101340.71
2023-05-08T15:30:16.278Z,101337.55
2023-05-08T15:32:46.286Z,101336.29
2023-05-08T15:35:18.230Z,101333.04
2023-05-08T15:37:49.395Z,101330.73
2023-05-08T15:40:20.719Z,101328.23
2023-05-08T15:42:50.820Z,101326.23
2023-05-08T15:45:20.307Z,101327.71
2023-05-08T15:47:50.168Z,101326.39
2023-05-08T15:50:20.131Z,101324.28
2023-05-08T15:52:52.146Z,101328.34
2023-05-08T15:55:28.368Z,101331.09
2023-05-08T15:57:58.812Z,101328.33
2023-05-08T16:00:43.301Z,101327.87
2023-05-08T16:03:14.365Z,101326.59
2023-05-08T16:05:45.545Z,101322.80
2023-05-08T16:08:16.367Z,101320.60
2023-05-08T16:10:45.285Z,101312.14
2023-05-08T16:13:15.424Z,101317.53
2023-05-08T16:15:46.984Z,101318.25
2023-05-08T16:18:17.266Z,101314.31
2023-05-08T16:20:46.553Z,101314.15
2023-05-08T16:23:15.402Z,101311.64
2023-05-08T16:25:45.276Z,101312.42
2023-05-08T16:28:14.559Z,101310.14
2023-05-08T16:30:43.724Z,101305.79
2023-05-08T16:33:13.146Z,101302.54
2023-05-08T16:35:43.009Z,101298.64
2023-05-08T16:38:11.849Z,101298.05
2023-05-08T16:40:42.172Z,101297.33
2023-05-08T16:43:12.094Z,101305.54
2023-05-08T16:45:43.310Z,101303.93
2023-05-08T16:48:12.450Z,101306.74
2023-05-08T16:50:41.945Z,101302.91
2023-05-08T16:53:11.176Z,101304.62
2023-05-08T16:55:40.127Z,101305.10
2023-05-08T16:58:09.325Z,101307.34
2023-05-08T17:00:37.814Z,101306.30
2023-05-08T17:03:06.428Z,101305.30
2023-05-08T17:05:35.885Z,101305.77
2023-05-08T17:08:05.088Z,101303.69
2023-05-08T17:10:34.001Z,101303.56
2023-05-08T17:13:02.995Z,101301.39
2023-05-08T17:15:32.698Z,101303.13
2023-05-08T17:18:01.948Z,101301.77
2023-05-08T17:20:31.509Z,101297.02
2023-05-08T17:23:03.175Z,101298.77
2023-05-08T17:25:33.879Z,101296.02
2023-05-08T17:28:03.290Z,101300.82
2023-05-08T17:30:32.271Z,101302.28
2023-05-08T17:33:01.444Z,101300.46
2023-05-08T17:35:31.085Z,101298.05
2023-05-08T17:38:01.604Z,101303.73
2023-05-08T17:40:32.143Z,101299.34
2023-05-08T17:43:02.108Z,101301.15
2023-05-08T17:45:33.170Z,101299.90
2023-05-08T17:48:02.858Z,101302.76
2023-05-08T17:50:34.498Z,101305.85
2023-05-08T17:53:06.434Z,101307.11
2023-05-08T17:55:41.627Z,101310.45
2023-05-08T17:58:15.251Z,101316.29
2023-05-08T18:00:58.390Z,101314.39
2023-05-08T18:03:29.082Z,101319.44
2023-05-08T18:06:01.231Z,101322.64
2023-05-08T18:08:34.707Z,101325.01
2023-05-08T18:11:06.022Z,101329.64
2023-05-08T18:13:38.032Z,101328.34
2023-05-08T18:16:08.572Z,101329.79
2023-05-08T18:18:37.635Z,101329.67
2023-05-08T18:21:06.727Z,101321.33
2023-05-08T18:23:36.036Z,101336.45
2023-05-08T18:26:05.388Z,101336.13
2023-05-08T18:28:36.423Z,101336.79
2023-05-08T18:31:05.245Z,101338.45
2023-05-08T18:33:34.872Z,101341.38
2023-05-08T18:36:07.502Z,101346.27
2023-05-08T18:38:36.823Z,101353.20
2023-05-08T18:41:06.379Z,101350.90
2023-05-08T18:43:37.452Z,101352.42
2023-05-08T18:46:17.923Z,101356.35
2023-05-08T18:48:47.157Z,101356.35
2023-05-08T18:51:16.185Z,101359.70
2023-05-08T18:53:45.458Z,101364.33
2023-05-08T18:56:14.337Z,101366.66
2023-05-08T18:58:43.214Z,101372.02
2023-05-08T19:01:12.732Z,101374.77
2023-05-08T19:03:42.565Z,101374.63
2023-05-08T19:06:12.808Z,101376.85
2023-05-08T19:08:42.190Z,101377.29
2023-05-08T19:11:11.263Z,101380.39
2023-05-08T19:13:40.355Z,101382.29
2023-05-08T19:16:09.094Z,101382.70
2023-05-08T19:18:38.772Z,101378.83
2023-05-08T19:21:08.699Z,101383.97
2023-05-08T19:23:38.305Z,101386.00
2023-05-08T19:26:07.572Z,101384.54
2023-05-08T19:28:36.592Z,101375.61
2023-05-08T19:31:05.782Z,101382.65
2023-05-08T19:33:35.382Z,101384.89
2023-05-08T19:36:05.615Z,101382.15
2023-05-08T19:38:34.401Z,101378.38
2023-05-08T19:41:03.485Z,101376.20
2023-05-08T19:43:32.938Z,101378.08
2023-05-08T19:46:02.108Z,101377.13
2023-05-08T19:48:33.678Z,101376.17
2023-05-08T19:51:10.450Z,101380.38
2023-05-08T19:53:40.434Z,101377.61
2023-05-08T19:56:09.581Z,101382.62
2023-05-08T19:58:39.136Z,101379.11
2023-05-08T20:01:08.380Z,101373.86
2023-05-08T20:03:38.913Z,101379.07
2023-05-08T20:06:08.722Z,101380.82
2023-05-08T20:08:38.843Z,101383.64
2023-05-08T20:11:12.001Z,101385.85
2023-05-08T20:13:41.124Z,101386.43
2023-05-08T20:16:10.776Z,101386.57
2023-05-08T20:18:40.628Z,101387.30
2023-05-08T20:21:21.364Z,101385.96
2023-05-08T20:23:50.282Z,101383.73
2023-05-08T20:26:19.261Z,101383.79
2023-05-08T20:28:48.254Z,101381.85
2023-05-08T20:31:17.786Z,101385.38
2023-05-08T20:33:46.654Z,101384.70
2023-05-08T20:36:15.640Z,101383.85
2023-05-08T20:38:44.482Z,101382.95
2023-05-08T20:41:13.626Z,101382.70
2023-05-08T20:43:42.907Z,101387.23
2023-05-08T20:46:12.066Z,101388.21
2023-05-08T20:48:41.219Z,101390.46
2023-05-08T20:51:10.618Z,101390.41
2023-05-08T20:53:39.301Z,101388.01
2023-05-08T20:56:09.361Z,101392.69
2023-05-08T20:58:38.313Z,101386.07
2023-05-08T21:01:07.229Z,101383.26
2023-05-08T21:03:36.103Z,101380.45
2023-05-08T21:06:05.138Z,101384.48
2023-05-08T21:08:33.910Z,101375.61
2023-05-08T21:11:02.880Z,101381.54
2023-05-08T21:13:32.386Z,101382.33
2023-05-08T21:16:01.110Z,101376.76
2023-05-08T21:18:29.967Z,101376.45
2023-05-08T21:20:58.751Z,101372.73
2023-05-08T21:23:27.438Z,101370.73
2023-05-08T21:25:56.631Z,101368.63
2023-05-08T21:28:25.370Z,101374.39
2023-05-08T21:30:53.787Z,101370.56
2023-05-08T21:33:22.276Z,101375.55
2023-05-08T21:35:50.958Z,101371.36
2023-05-08T21:38:19.574Z,101369.16
2023-05-08T21:40:48.130Z,101369.56
2023-05-08T21:43:16.486Z,101371.86
2023-05-08T21:45:45.102Z,101367.23
2023-05-08T21:48:13.793Z,101373.05
2023-05-08T21:50:42.372Z,101365.01
2023-05-08T21:53:11.151Z,101366.03
2023-05-08T21:55:39.528Z,101361.75
2023-05-08T21:58:08.025Z,101357.40
2023-05-08T22:00:36.800Z,101357.61
2023-05-08T22:03:05.764Z,101356.70
2023-05-08T22:05:34.476Z,101355.71
2023-05-08T22:08:02.793Z,101356.52
2023-05-08T22:10:31.457Z,101357.41
2023-05-08T22:13:01.678Z,101355.01
2023-05-08T22:15:31.048Z,101355.09
2023-05-08T22:18:00.811Z,101355.58
2023-05-08T22:20:29.464Z,101352.95
2023-05-08T22:22:58.456Z,101350.46
2023-05-08T22:25:27.352Z,101352.66
2023-05-08T22:27:55.841Z,101343.76
2023-05-08T22:30:25.643Z,101350.13
2023-05-08T22:32:57.947Z,101345.98
2023-05-08T22:35:27.864Z,101343.70
2023-05-08T22:37:59.598Z,101341.74
2023-05-08T22:40:29.084Z,101339.52
2023-05-08T22:43:01.356Z,101338.73
2023-05-08T22:45:29.847Z,101337.65
2023-05-08T22:47:58.548Z,101336.42
2023-05-08T22:50:27.120Z,101338.63
2023-05-08T22:52:55.702Z,101338.17
2023-05-08T22:55:24.817Z,101336.27
2023-05-08T22:57:53.402Z,101331.64
2023-05-08T23:00:21.850Z,101330.53
2023-05-08T23:02:50.689Z,101332.79
2023-05-08T23:05:19.118Z,101334.77
2023-05-08T23:07:47.565Z,101332.72
2023-05-08T23:10:16.298Z,101335.69
2023-05-08T23:12:44.920Z,101335.65
2023-05-08T23:15:13.979Z,101333.24
2023-05-08T23:17:42.909Z,101329.52
2023-05-08T23:20:11.667Z,101329.48
2023-05-08T23:22:40.285Z,101326.56
2023-05-08T23:25:12.477Z,101326.01
2023-05-08T23:27:41.491Z,101326.63
2023-05-08T23:30:13.423Z,101323.98
2023-05-08T23:32:42.091Z,101317.98
2023-05-08T23:35:11.839Z,101316.73
2023-05-08T23:37:40.441Z,101314.90
2023-05-08T23:40:09.948Z,101313.95
2023-05-08T23:42:40.051Z,101313.05
2023-05-08T23:45:09.394Z,101311.22
2023-05-08T23:47:37.982Z,101309.59
2023-05-08T23:50:07.232Z,101308.55
2023-05-08T23:52:35.729Z,101306.81
2023-05-08T23:55:04.523Z,101307.11
2023-05-08T23:57:33.222Z,101303.16
